createdAt,value
2018-03-16T00:00:59.944Z,36.07
2018-03-16T00:03:27.415Z,34.40
2018-03-16T00:05:54.878Z,35.20
2018-03-16T00:08:22.360Z,29.60
2018-03-16T00:10:50.582Z,30.40
2018-03-16T00:13:18.039Z,27.33
2018-03-16T00:15:45.510Z,30.10
2018-03-16T00:18:12.985Z,28.13
2018-03-16T00:20:40.447Z,26.80
2018-03-16T00:23:08.711Z,29.43
2018-03-16T00:25:36.231Z,25.57
2018-03-16T00:28:04.410Z,29.10
2018-03-16T00:30:32.106Z,27.40
2018-03-16T00:32:59.563Z,23.70
2018-03-16T00:35:27.789Z,26.37
2018-03-16T00:37:55.286Z,25.73
2018-03-16T00:40:22.755Z,30.10
2018-03-16T00:42:51.003Z,29.57
2018-03-16T00:45:18.481Z,26.83
2018-03-16T00:47:46.712Z,24.73
2018-03-16T00:50:14.193Z,25.47
2018-03-16T00:52:41.667Z,29.17
2018-03-16T00:55:09.131Z,26.93
2018-03-16T00:57:37.375Z,25.33
2018-03-16T01:00:04.864Z,26.97
2018-03-16T01:02:33.098Z,29.70
2018-03-16T01:05:00.566Z,29.67
2018-03-16T01:07:28.051Z,31.33
2018-03-16T01:09:56.286Z,30.60
2018-03-16T01:12:23.746Z,30.50
2018-03-16T01:14:51.241Z,31.27
2018-03-16T01:17:19.466Z,31.50
2018-03-16T01:19:46.939Z,35.70
2018-03-16T01:22:14.419Z,28.83
2018-03-16T01:24:41.879Z,29.00
2018-03-16T01:27:09.342Z,35.20
2018-03-16T01:29:37.585Z,31.00
2018-03-16T01:32:05.054Z,31.90
2018-03-16T01:34:34.046Z,30.30
2018-03-16T01:37:03.026Z,35.37
2018-03-16T01:39:30.792Z,32.07
2018-03-16T01:41:58.250Z,29.87
2018-03-16T01:44:25.718Z,34.20
2018-03-16T01:46:53.372Z,29.03
2018-03-16T01:49:21.603Z,30.20
2018-03-16T01:51:49.050Z,34.17
2018-03-16T01:54:16.775Z,30.17
2018-03-16T01:56:45.046Z,29.80
2018-03-16T01:59:12.505Z,28.60
2018-03-16T02:01:40.070Z,26.93
2018-03-16T02:04:08.291Z,26.70
2018-03-16T02:06:35.761Z,30.23
2018-03-16T02:09:03.255Z,30.27
2018-03-16T02:11:33.278Z,30.10
2018-03-16T02:14:01.510Z,26.47
2018-03-16T02:16:29.041Z,27.97
2018-03-16T02:18:56.511Z,34.23
2018-03-16T02:21:23.994Z,30.30
2018-03-16T02:23:54.249Z,29.47
2018-03-16T02:26:22.464Z,29.50
2018-03-16T02:28:49.954Z,30.10
2018-03-16T02:31:17.418Z,30.67
2018-03-16T02:33:44.897Z,30.80
2018-03-16T02:36:13.151Z,28.23
2018-03-16T02:38:40.618Z,31.73
2018-03-16T02:41:08.858Z,36.23
2018-03-16T02:43:36.438Z,28.50
2018-03-16T02:46:03.898Z,31.07
2018-03-16T02:48:31.354Z,34.93
2018-03-16T02:51:00.348Z,38.43
2018-03-16T02:53:27.811Z,36.33
2018-03-16T02:55:55.271Z,36.73
2018-03-16T02:58:23.526Z,39.20
2018-03-16T03:00:51.004Z,37.90
2018-03-16T03:03:18.463Z,31.33
2018-03-16T03:05:46.711Z,38.43
2018-03-16T03:08:14.181Z,37.33
2018-03-16T03:10:41.648Z,39.23
2018-03-16T03:13:09.891Z,35.47
2018-03-16T03:15:37.346Z,35.10
2018-03-16T03:18:04.852Z,29.70
2018-03-16T03:20:33.069Z,31.07
2018-03-16T03:23:00.530Z,31.07
2018-03-16T03:25:28.014Z,33.43
2018-03-16T03:27:56.249Z,32.57
2018-03-16T03:30:23.706Z,32.40
2018-03-16T03:32:51.408Z,31.63
2018-03-16T03:35:19.635Z,29.30
2018-03-16T03:37:47.106Z,31.10
2018-03-16T03:40:14.586Z,31.10
2018-03-16T03:42:42.047Z,37.13
2018-03-16T03:45:09.516Z,32.47
2018-03-16T03:47:36.986Z,33.60
2018-03-16T03:50:05.239Z,33.70
2018-03-16T03:52:33.477Z,35.20
2018-03-16T03:55:00.970Z,40.07
2018-03-16T03:57:28.426Z,38.17
2018-03-16T03:59:55.994Z,41.77
2018-03-16T04:02:24.239Z,42.07
2018-03-16T04:04:51.702Z,44.50
2018-03-16T04:07:19.266Z,35.43
2018-03-16T04:09:46.754Z,41.27
2018-03-16T04:12:14.982Z,40.07
2018-03-16T04:14:42.453Z,37.27
2018-03-16T04:17:09.931Z,39.80
2018-03-16T04:19:38.154Z,46.53
2018-03-16T04:22:05.645Z,37.93
2018-03-16T04:24:33.103Z,45.57
2018-03-16T04:27:00.566Z,37.40
2018-03-16T04:29:28.052Z,40.53
2018-03-16T04:31:55.524Z,40.47
2018-03-16T04:34:22.982Z,40.10
2018-03-16T04:36:50.467Z,38.37
2018-03-16T04:39:17.915Z,47.50
2018-03-16T04:41:45.383Z,41.47
2018-03-16T04:44:12.875Z,42.77
2018-03-16T04:46:41.096Z,41.23
2018-03-16T04:49:08.577Z,40.60
2018-03-16T04:51:36.036Z,34.20
2018-03-16T04:54:03.498Z,42.60
2018-03-16T04:56:31.154Z,39.93
2018-03-16T04:58:58.634Z,41.63
2018-03-16T05:01:26.951Z,38.23
2018-03-16T05:03:54.422Z,39.57
2018-03-16T05:06:21.902Z,39.30
2018-03-16T05:08:50.191Z,39.40
2018-03-16T05:11:18.450Z,37.37
2018-03-16T05:13:45.908Z,41.73
2018-03-16T05:16:13.391Z,40.70
2018-03-16T05:18:41.738Z,40.47
2018-03-16T05:21:09.238Z,40.00
2018-03-16T05:23:37.520Z,41.50
2018-03-16T05:26:05.257Z,42.17
2018-03-16T05:28:33.476Z,45.50
2018-03-16T05:31:00.938Z,40.60
2018-03-16T05:33:28.423Z,41.30
2018-03-16T05:35:55.894Z,42.20
2018-03-16T05:38:24.120Z,40.80
2018-03-16T05:40:51.601Z,46.77
2018-03-16T05:43:20.227Z,40.20
2018-03-16T05:45:48.474Z,41.43
2018-03-16T05:48:17.443Z,38.70
2018-03-16T05:50:44.908Z,37.53
2018-03-16T05:53:12.398Z,49.23
2018-03-16T05:55:40.631Z,35.90
2018-03-16T05:58:08.095Z,39.67
2018-03-16T06:00:35.570Z,38.43
2018-03-16T06:03:03.030Z,44.93
2018-03-16T06:05:32.001Z,39.27
2018-03-16T06:07:59.579Z,39.17
2018-03-16T06:10:27.036Z,39.60
2018-03-16T06:12:54.499Z,35.47
2018-03-16T06:15:22.748Z,38.33
2018-03-16T06:17:50.215Z,39.20
2018-03-16T06:20:17.686Z,35.70
2018-03-16T06:22:45.931Z,37.17
2018-03-16T06:25:13.388Z,43.60
2018-03-16T06:27:40.847Z,41.67
2018-03-16T06:30:08.523Z,36.83
2018-03-16T06:32:35.982Z,41.57
2018-03-16T06:35:04.958Z,37.10
2018-03-16T06:37:32.481Z,36.10
2018-03-16T06:39:59.935Z,40.17
2018-03-16T06:42:27.394Z,45.00
2018-03-16T06:44:55.218Z,40.87
2018-03-16T06:47:23.341Z,41.73
2018-03-16T06:49:50.831Z,42.23
2018-03-16T06:52:18.345Z,42.50
2018-03-16T06:54:45.826Z,40.67
2018-03-16T06:57:13.298Z,41.47
2018-03-16T06:59:40.773Z,43.03
2018-03-16T07:02:08.243Z,37.37
2018-03-16T07:04:36.491Z,39.50
2018-03-16T07:07:03.954Z,38.17
2018-03-16T07:09:31.847Z,36.77
2018-03-16T07:11:59.326Z,44.53
2018-03-16T07:14:26.792Z,37.63
2018-03-16T07:16:54.260Z,37.33
2018-03-16T07:19:21.740Z,42.10
2018-03-16T07:21:49.959Z,39.27
2018-03-16T07:24:17.434Z,40.47
2018-03-16T07:26:44.911Z,45.20
2018-03-16T07:29:12.374Z,42.90
2018-03-16T07:31:40.559Z,47.63
2018-03-16T07:34:08.044Z,40.50
2018-03-16T07:36:37.494Z,44.70
2018-03-16T07:39:07.442Z,56.37
2018-03-16T07:41:34.903Z,52.97
2018-03-16T07:44:04.450Z,54.63
2018-03-16T07:46:33.698Z,45.23
2018-03-16T07:49:01.173Z,61.13
2018-03-16T07:51:30.018Z,49.43
2018-03-16T07:53:57.486Z,50.90
2018-03-16T07:56:26.963Z,51.67
2018-03-16T07:58:54.415Z,49.40
2018-03-16T08:01:23.092Z,45.33
2018-03-16T08:03:50.554Z,48.00
2018-03-16T08:06:19.586Z,49.07
2018-03-16T08:08:48.625Z,46.30
2018-03-16T08:11:16.046Z,54.77
2018-03-16T08:13:43.511Z,49.10
2018-03-16T08:16:11.767Z,46.40
2018-03-16T08:18:39.219Z,52.07
2018-03-16T08:21:06.671Z,51.63
2018-03-16T08:23:34.164Z,55.10
2018-03-16T08:26:02.386Z,53.40
2018-03-16T08:28:29.857Z,49.07
2018-03-16T08:30:57.341Z,51.40
2018-03-16T08:33:25.574Z,51.60
2018-03-16T08:35:53.108Z,54.43
2018-03-16T08:38:20.615Z,57.93
2018-03-16T08:40:48.092Z,55.83
2018-03-16T08:43:15.685Z,55.80
2018-03-16T08:45:43.139Z,57.23
2018-03-16T08:48:10.602Z,62.70
2018-03-16T08:50:38.094Z,62.33
2018-03-16T08:53:05.564Z,63.00
2018-03-16T08:55:33.830Z,64.90
2018-03-16T08:58:01.292Z,58.80
2018-03-16T09:00:29.518Z,81.77
2018-03-16T09:02:57.022Z,64.90
2018-03-16T09:05:24.491Z,67.97
2018-03-16T09:07:52.721Z,77.27
2018-03-16T09:10:20.210Z,72.00
2018-03-16T09:12:47.711Z,68.90
2018-03-16T09:15:15.282Z,73.27
2018-03-16T09:17:42.784Z,75.50
2018-03-16T09:20:10.246Z,76.40
2018-03-16T09:22:37.714Z,80.87
2018-03-16T09:25:05.954Z,77.47
2018-03-16T09:27:33.410Z,80.27
2018-03-16T09:30:00.888Z,76.07
2018-03-16T09:32:28.370Z,90.33
2018-03-16T09:34:56.606Z,84.87
2018-03-16T09:37:24.080Z,89.60
2018-03-16T09:39:51.567Z,84.73
2018-03-16T09:42:19.032Z,86.60
2018-03-16T09:44:46.502Z,92.47
2018-03-16T09:47:14.023Z,85.80
2018-03-16T09:49:42.257Z,98.73
2018-03-16T09:52:09.747Z,92.40
2018-03-16T09:54:49.863Z,85.03
2018-03-16T09:57:17.352Z,85.40
2018-03-16T09:59:45.598Z,88.10
2018-03-16T10:02:13.059Z,90.23
2018-03-16T10:04:40.550Z,84.00
2018-03-16T10:07:08.787Z,89.87
2018-03-16T10:09:36.260Z,86.23
2018-03-16T10:12:03.807Z,91.93
2018-03-16T10:14:31.218Z,85.23
2018-03-16T10:16:58.679Z,88.03
2018-03-16T10:19:26.163Z,86.27
2018-03-16T10:21:53.637Z,87.90
2018-03-16T10:24:21.138Z,91.20
2018-03-16T10:26:48.611Z,94.70
2018-03-16T10:29:16.076Z,90.63
2018-03-16T10:31:43.547Z,85.37
2018-03-16T10:34:11.006Z,93.27
2018-03-16T10:36:38.472Z,87.37
2018-03-16T10:39:05.960Z,87.70
2018-03-16T10:41:34.187Z,94.63
2018-03-16T10:44:01.655Z,92.10
2018-03-16T10:46:29.134Z,95.17
2018-03-16T10:48:56.664Z,93.67
2018-03-16T10:51:24.865Z,94.30
2018-03-16T10:53:52.347Z,98.23
2018-03-16T10:56:20.599Z,100.60
2018-03-16T10:58:48.204Z,96.20
2018-03-16T11:01:18.687Z,93.30
2018-03-16T11:03:50.396Z,96.37
2018-03-16T11:06:23.470Z,83.43
2018-03-16T11:08:50.938Z,87.50
2018-03-16T11:11:18.411Z,96.40
2018-03-16T11:13:45.885Z,97.40
2018-03-16T11:16:13.340Z,98.63
2018-03-16T11:18:40.805Z,99.53
2018-03-16T11:21:08.287Z,80.30
2018-03-16T11:23:36.519Z,78.90
2018-03-16T11:26:03.997Z,74.53
2018-03-16T11:28:31.468Z,75.60
2018-03-16T11:30:59.702Z,68.33
2018-03-16T11:33:27.178Z,75.80
2018-03-16T11:35:54.672Z,73.07
2018-03-16T11:38:22.131Z,65.90
2018-03-16T11:40:49.602Z,73.60
2018-03-16T11:43:17.095Z,68.20
2018-03-16T11:45:44.569Z,71.67
2018-03-16T11:48:12.038Z,69.67
2018-03-16T11:50:40.293Z,82.67
2018-03-16T11:53:07.760Z,76.27
2018-03-16T11:55:35.980Z,77.87
2018-03-16T11:58:03.470Z,69.50
2018-03-16T12:00:30.954Z,70.47
2018-03-16T12:02:59.178Z,67.43
2018-03-16T12:05:26.659Z,59.10
2018-03-16T12:07:54.123Z,66.67
2018-03-16T12:10:21.577Z,59.57
2018-03-16T12:12:49.084Z,64.90
2018-03-16T12:15:16.554Z,60.43
2018-03-16T12:17:44.018Z,60.50
2018-03-16T12:20:11.549Z,73.17
2018-03-16T12:22:39.429Z,66.90
2018-03-16T12:25:06.897Z,65.33
2018-03-16T12:27:34.391Z,66.57
2018-03-16T12:30:01.863Z,68.90
2018-03-16T12:32:30.090Z,73.43
2018-03-16T12:34:57.579Z,80.33
2018-03-16T12:37:25.064Z,72.23
2018-03-16T12:39:53.307Z,67.60
2018-03-16T12:42:20.766Z,72.13
2018-03-16T12:44:48.231Z,74.27
2018-03-16T12:47:16.665Z,72.50
2018-03-16T12:49:44.131Z,67.40
2018-03-16T12:52:11.619Z,69.23
2018-03-16T12:54:39.082Z,65.30
2018-03-16T12:57:07.314Z,63.43
2018-03-16T12:59:34.797Z,63.70
2018-03-16T13:02:02.262Z,64.87
2018-03-16T13:04:29.726Z,57.33
2018-03-16T13:06:58.002Z,62.30
2018-03-16T13:09:26.258Z,56.80
2018-03-16T13:11:53.734Z,63.53
2018-03-16T13:14:21.980Z,68.20
2018-03-16T13:16:49.470Z,58.63
2018-03-16T13:19:18.653Z,59.33
2018-03-16T13:21:46.111Z,68.53
2018-03-16T13:24:14.343Z,63.17
2018-03-16T13:26:42.200Z,65.60
2018-03-16T13:29:09.678Z,63.70
2018-03-16T13:31:38.720Z,65.50
2018-03-16T13:34:06.947Z,55.43
2018-03-16T13:36:34.428Z,58.07
2018-03-16T13:39:01.899Z,60.37
2018-03-16T13:41:30.216Z,59.13
2018-03-16T13:43:58.456Z,63.07
2018-03-16T13:46:26.683Z,60.83
2018-03-16T13:48:54.164Z,62.00
2018-03-16T13:51:21.646Z,58.50
2018-03-16T13:53:49.875Z,59.40
2018-03-16T13:56:17.542Z,59.57
2018-03-16T13:58:45.018Z,62.13
2018-03-16T14:01:12.482Z,67.70
2018-03-16T14:03:40.730Z,82.43
2018-03-16T14:06:08.205Z,90.57
2018-03-16T14:08:35.672Z,91.67
2018-03-16T14:11:03.918Z,92.47
2018-03-16T14:13:31.827Z,90.10
2018-03-16T14:16:00.098Z,103.97
2018-03-16T14:18:28.375Z,90.30
2018-03-16T14:20:56.652Z,83.63
2018-03-16T14:23:24.893Z,79.63
2018-03-16T14:25:52.379Z,83.57
2018-03-16T14:28:20.611Z,81.67
2018-03-16T14:30:48.092Z,79.57
2018-03-16T14:33:15.584Z,82.37
2018-03-16T14:35:43.047Z,82.87
2018-03-16T14:38:10.510Z,78.27
2018-03-16T14:40:37.996Z,80.20
2018-03-16T14:43:05.520Z,84.10
2018-03-16T14:45:33.014Z,80.43
2018-03-16T14:48:00.466Z,72.57
2018-03-16T14:50:27.931Z,83.17
2018-03-16T14:52:55.424Z,81.13
2018-03-16T14:55:23.653Z,75.27
2018-03-16T14:57:51.124Z,68.40
2018-03-16T15:00:18.621Z,76.27
2018-03-16T15:02:46.108Z,74.97
2018-03-16T15:05:13.614Z,76.03
2018-03-16T15:07:41.079Z,69.10
2018-03-16T15:10:09.339Z,73.83
2018-03-16T15:12:36.791Z,79.97
2018-03-16T15:15:04.410Z,71.33
2018-03-16T15:17:31.914Z,55.73
2018-03-16T15:19:59.407Z,54.03
2018-03-16T15:22:26.866Z,59.17
2018-03-16T15:24:54.348Z,71.87
2018-03-16T15:27:21.827Z,76.13
2018-03-16T15:29:49.322Z,71.97
2018-03-16T15:32:16.792Z,71.83
2018-03-16T15:34:44.250Z,77.37
2018-03-16T15:37:11.730Z,66.00
2018-03-16T15:39:39.195Z,76.93
2018-03-16T15:42:07.587Z,68.73
2018-03-16T15:44:35.075Z,71.00
2018-03-16T15:47:04.837Z,67.63
2018-03-16T15:49:36.103Z,52.83
2018-03-16T15:52:04.427Z,56.00
2018-03-16T15:54:33.636Z,54.03
2018-03-16T15:57:01.363Z,59.60
2018-03-16T15:59:29.600Z,56.60
2018-03-16T16:01:58.031Z,54.20
2018-03-16T16:04:26.272Z,44.13
2018-03-16T16:06:54.668Z,42.80
2018-03-16T16:09:23.835Z,46.03
2018-03-16T16:11:51.336Z,44.80
2018-03-16T16:14:20.564Z,48.70
2018-03-16T16:16:49.507Z,44.17
2018-03-16T16:19:17.758Z,48.67
2018-03-16T16:21:46.134Z,49.77
2018-03-16T16:24:13.652Z,52.20
2018-03-16T16:26:42.320Z,52.43
2018-03-16T16:29:10.538Z,46.93
2018-03-16T16:31:38.035Z,50.20
2018-03-16T16:34:06.268Z,47.90
2018-03-16T16:36:33.746Z,39.40
2018-03-16T16:39:01.872Z,48.97
2018-03-16T16:41:29.346Z,48.77
2018-03-16T16:43:56.819Z,46.50
2018-03-16T16:46:24.311Z,50.33
2018-03-16T16:48:52.600Z,45.70
2018-03-16T16:51:20.243Z,41.20
2018-03-16T16:53:47.706Z,46.20
2018-03-16T16:56:15.954Z,44.00
2018-03-16T16:58:43.463Z,46.70
2018-03-16T17:01:10.932Z,46.60
2018-03-16T17:03:39.247Z,50.03
2018-03-16T17:06:06.750Z,55.33
2018-03-16T17:08:35.064Z,50.83
2018-03-16T17:11:03.047Z,54.20
2018-03-16T17:13:30.742Z,57.20
2018-03-16T17:15:58.210Z,52.63
2018-03-16T17:18:25.679Z,52.87
2018-03-16T17:20:53.187Z,50.33
2018-03-16T17:23:20.654Z,47.83
2018-03-16T17:25:48.567Z,40.23
2018-03-16T17:28:16.070Z,51.60
2018-03-16T17:30:44.004Z,45.80
2018-03-16T17:33:11.511Z,44.60
2018-03-16T17:35:39.904Z,50.40
2018-03-16T17:38:07.405Z,43.07
2018-03-16T17:40:34.855Z,52.70
2018-03-16T17:43:02.340Z,51.10
2018-03-16T17:45:30.042Z,49.77
2018-03-16T17:47:57.540Z,53.37
2018-03-16T17:50:25.069Z,56.30
2018-03-16T17:52:52.565Z,51.90
2018-03-16T17:55:20.084Z,54.50
2018-03-16T17:57:47.515Z,57.83
2018-03-16T18:00:15.764Z,60.13
2018-03-16T18:02:43.246Z,52.47
2018-03-16T18:05:11.486Z,57.83
2018-03-16T18:07:38.978Z,56.90
2018-03-16T18:10:07.635Z,58.67
2018-03-16T18:12:35.110Z,61.47
2018-03-16T18:15:03.367Z,58.13
2018-03-16T18:17:30.840Z,54.30
2018-03-16T18:19:59.059Z,52.77
2018-03-16T18:22:26.559Z,57.27
2018-03-16T18:24:54.790Z,63.20
2018-03-16T18:27:22.266Z,55.83
2018-03-16T18:29:49.739Z,53.87
2018-03-16T18:32:17.474Z,50.53
2018-03-16T18:34:45.167Z,53.37
2018-03-16T18:37:14.180Z,53.50
2018-03-16T18:39:41.622Z,53.33
2018-03-16T18:42:09.132Z,47.73
2018-03-16T18:44:37.371Z,49.83
2018-03-16T18:47:05.626Z,48.10
2018-03-16T18:49:33.106Z,46.73
2018-03-16T18:52:01.341Z,49.90
2018-03-16T18:54:28.806Z,47.90
2018-03-16T18:56:56.299Z,42.53
2018-03-16T18:59:24.533Z,41.87
2018-03-16T19:01:51.995Z,50.00
2018-03-16T19:04:19.491Z,44.27
2018-03-16T19:06:46.976Z,43.73
2018-03-16T19:09:14.445Z,43.33
2018-03-16T19:11:41.935Z,41.80
2018-03-16T19:14:09.412Z,41.43
2018-03-16T19:16:36.894Z,40.93
2018-03-16T19:19:04.405Z,40.60
2018-03-16T19:21:31.880Z,40.30
2018-03-16T19:24:00.119Z,40.10
2018-03-16T19:26:27.587Z,39.97
2018-03-16T19:28:55.818Z,37.97
2018-03-16T19:31:23.302Z,39.70
2018-03-16T19:33:50.781Z,35.77
2018-03-16T19:36:18.273Z,42.50
2018-03-16T19:38:45.754Z,39.57
2018-03-16T19:41:13.222Z,35.50
2018-03-16T19:43:40.687Z,39.33
2018-03-16T19:46:08.192Z,36.13
2018-03-16T19:48:35.723Z,38.63
2018-03-16T19:51:03.158Z,39.27
2018-03-16T19:53:30.639Z,38.40
2018-03-16T19:55:58.897Z,37.77
2018-03-16T19:58:26.378Z,38.20
2018-03-16T20:00:55.210Z,38.20
2018-03-16T20:03:22.662Z,41.73
2018-03-16T20:05:50.172Z,36.60
2018-03-16T20:08:17.627Z,42.07
2018-03-16T20:10:45.111Z,44.17
2018-03-16T20:13:12.615Z,35.80
2018-03-16T20:15:40.091Z,38.27
2018-03-16T20:18:09.072Z,34.23
2018-03-16T20:20:36.557Z,33.20
2018-03-16T20:23:04.807Z,32.50
2018-03-16T20:25:32.263Z,33.30
2018-03-16T20:27:59.756Z,31.70
2018-03-16T20:30:27.238Z,31.00
2018-03-16T20:32:54.724Z,32.77
2018-03-16T20:35:22.407Z,31.57
2018-03-16T20:37:49.888Z,31.57
2018-03-16T20:40:18.126Z,32.33
2018-03-16T20:42:45.800Z,31.67
2018-03-16T20:45:13.259Z,31.27
2018-03-16T20:47:40.739Z,29.83
2018-03-16T20:50:08.275Z,27.67
2018-03-16T20:52:35.741Z,27.83
2018-03-16T20:55:03.983Z,27.50
2018-03-16T20:57:31.658Z,30.97
2018-03-16T20:59:59.129Z,31.53
2018-03-16T21:02:27.359Z,30.83
2018-03-16T21:04:54.882Z,25.97
2018-03-16T21:07:22.459Z,29.53
2018-03-16T21:09:51.145Z,25.70
2018-03-16T21:12:19.580Z,27.60
2018-03-16T21:14:47.866Z,27.13
2018-03-16T21:17:16.107Z,26.83
2018-03-16T21:19:43.595Z,27.30
2018-03-16T21:22:12.706Z,29.53
2018-03-16T21:24:40.186Z,26.50
2018-03-16T21:27:07.691Z,31.63
2018-03-16T21:29:35.187Z,28.60
2018-03-16T21:32:02.655Z,27.23
2018-03-16T21:34:30.630Z,27.63
2018-03-16T21:36:58.083Z,28.43
2018-03-16T21:39:25.580Z,26.70
2018-03-16T21:41:53.206Z,32.17
2018-03-16T21:44:20.669Z,25.87
2018-03-16T21:46:48.147Z,29.27
2018-03-16T21:49:15.647Z,24.53
2018-03-16T21:51:43.871Z,26.93
2018-03-16T21:54:11.358Z,28.77
2018-03-16T21:56:40.715Z,27.63
2018-03-16T21:59:08.186Z,28.50
2018-03-16T22:01:35.664Z,23.87
2018-03-16T22:04:03.945Z,27.58
2018-03-16T22:06:31.408Z,30.53
2018-03-16T22:08:59.690Z,27.57
2018-03-16T22:11:27.279Z,28.90
2018-03-16T22:13:54.835Z,30.10
2018-03-16T22:16:22.326Z,25.20
2018-03-16T22:18:49.798Z,33.80
2018-03-16T22:21:17.279Z,28.40
2018-03-16T22:23:44.847Z,25.30
2018-03-16T22:26:12.369Z,28.03
2018-03-16T22:28:39.852Z,28.50
2018-03-16T22:31:08.108Z,28.77
2018-03-16T22:33:36.433Z,27.45
2018-03-16T22:36:03.895Z,30.45
2018-03-16T22:38:31.377Z,29.40
2018-03-16T22:40:58.842Z,30.57
2018-03-16T22:43:26.339Z,30.80
2018-03-16T22:45:53.827Z,31.50
2018-03-16T22:48:21.311Z,29.05
2018-03-16T22:50:49.018Z,31.83
2018-03-16T22:53:16.503Z,29.85
2018-03-16T22:55:43.962Z,28.23
2018-03-16T22:58:11.599Z,28.90
2018-03-16T23:00:39.054Z,32.27
2018-03-16T23:03:06.632Z,30.25
2018-03-16T23:05:34.106Z,28.80
2018-03-16T23:08:01.593Z,30.03
2018-03-16T23:10:29.832Z,30.15
2018-03-16T23:12:57.326Z,26.58
2018-03-16T23:15:25.632Z,26.83
2018-03-16T23:17:53.107Z,27.02
2018-03-16T23:20:20.599Z,26.70
2018-03-16T23:22:48.059Z,27.85
2018-03-16T23:25:15.549Z,25.40
2018-03-16T23:27:43.129Z,27.00
2018-03-16T23:30:13.120Z,25.62
2018-03-16T23:32:41.355Z,24.40
2018-03-16T23:35:08.834Z,26.33
2018-03-16T23:37:37.307Z,24.90
2018-03-16T23:40:05.543Z,26.85
2018-03-16T23:42:33.023Z,28.50
2018-03-16T23:45:00.528Z,29.33
2018-03-16T23:47:28.011Z,28.35
2018-03-16T23:49:55.477Z,30.55
2018-03-16T23:52:22.962Z,26.50
2018-03-16T23:54:51.195Z,27.10
2018-03-16T23:57:18.659Z,25.42
2018-03-16T23:59:46.154Z,27.33
